createdAt,value
2019-02-04T00:01:18.002Z,23.97
2019-02-04T00:03:47.406Z,30.50
2019-02-04T00:06:16.598Z,29.43
2019-02-04T00:08:46.071Z,34.47
2019-02-04T00:11:15.250Z,31.70
2019-02-04T00:13:44.334Z,32.23
2019-02-04T00:16:13.471Z,37.40
2019-02-04T00:18:43.042Z,39.50
2019-02-04T00:21:12.500Z,36.20
2019-02-04T00:23:41.972Z,30.97
2019-02-04T00:26:11.078Z,33.10
2019-02-04T00:28:40.159Z,33.07
2019-02-04T00:31:09.254Z,28.50
2019-02-04T00:33:38.720Z,35.53
2019-02-04T00:36:07.848Z,32.47
2019-02-04T00:38:39.377Z,36.77
2019-02-04T00:41:08.420Z,34.43
2019-02-04T00:43:37.810Z,29.13
2019-02-04T00:46:07.204Z,27.83
2019-02-04T00:48:36.843Z,24.97
2019-02-04T00:51:06.973Z,30.90
2019-02-04T00:53:36.139Z,28.17
2019-02-04T00:56:05.592Z,29.20
2019-02-04T00:58:35.821Z,27.60
2019-02-04T01:01:05.765Z,25.17
2019-02-04T01:03:35.293Z,30.53
2019-02-04T01:06:07.738Z,28.70
2019-02-04T01:08:40.607Z,24.80
2019-02-04T01:11:10.039Z,27.17
2019-02-04T01:13:39.141Z,21.67
2019-02-04T01:16:08.217Z,26.60
2019-02-04T01:18:38.111Z,27.47
2019-02-04T01:21:07.423Z,25.10
2019-02-04T01:23:36.675Z,20.87
2019-02-04T01:26:05.731Z,26.00
2019-02-04T01:28:35.099Z,24.13
2019-02-04T01:31:04.950Z,27.27
2019-02-04T01:33:34.556Z,31.27
2019-02-04T01:36:05.092Z,27.43
2019-02-04T01:38:35.020Z,34.03
2019-02-04T01:41:04.232Z,24.17
2019-02-04T01:43:33.398Z,31.00
2019-02-04T01:46:02.513Z,29.03
2019-02-04T01:48:31.990Z,30.37
2019-02-04T01:51:01.591Z,26.83
2019-02-04T01:53:30.695Z,34.70
2019-02-04T01:55:59.770Z,27.80
2019-02-04T01:58:28.858Z,29.13
2019-02-04T02:00:58.720Z,30.20
2019-02-04T02:03:28.947Z,32.00
2019-02-04T02:05:58.421Z,26.67
2019-02-04T02:08:27.877Z,31.00
2019-02-04T02:11:00.615Z,36.53
2019-02-04T02:13:29.711Z,31.87
2019-02-04T02:15:58.847Z,36.67
2019-02-04T02:18:27.915Z,34.37
2019-02-04T02:20:57.155Z,28.73
2019-02-04T02:23:26.968Z,43.77
2019-02-04T02:25:56.196Z,29.77
2019-02-04T02:28:25.815Z,33.07
2019-02-04T02:30:54.974Z,33.57
2019-02-04T02:33:24.031Z,33.70
2019-02-04T02:35:55.907Z,32.53
2019-02-04T02:38:25.810Z,28.00
2019-02-04T02:40:54.893Z,35.50
2019-02-04T02:43:24.058Z,35.97
2019-02-04T02:45:53.172Z,32.67
2019-02-04T02:48:22.286Z,32.03
2019-02-04T02:50:51.846Z,31.10
2019-02-04T02:53:21.274Z,27.00
2019-02-04T02:55:50.383Z,29.17
2019-02-04T02:58:20.216Z,31.57
2019-02-04T03:00:49.564Z,31.20
2019-02-04T03:03:19.700Z,24.73
2019-02-04T03:05:48.879Z,27.80
2019-02-04T03:08:18.156Z,29.43
2019-02-04T03:10:47.380Z,36.00
2019-02-04T03:13:16.788Z,26.23
2019-02-04T03:15:45.956Z,32.77
2019-02-04T03:18:15.059Z,32.17
2019-02-04T03:20:44.241Z,30.93
2019-02-04T03:23:13.710Z,32.87
2019-02-04T03:25:45.226Z,28.03
2019-02-04T03:28:14.723Z,26.57
2019-02-04T03:30:44.260Z,26.03
2019-02-04T03:33:13.472Z,25.70
2019-02-04T03:35:44.821Z,22.43
2019-02-04T03:38:13.924Z,22.63
2019-02-04T03:40:43.728Z,25.07
2019-02-04T03:43:18.563Z,19.03
2019-02-04T03:45:47.653Z,20.70
2019-02-04T03:48:17.398Z,20.27
2019-02-04T03:50:48.351Z,18.20
2019-02-04T03:53:17.579Z,23.23
2019-02-04T03:55:46.980Z,28.57
2019-02-04T03:58:16.062Z,22.60
2019-02-04T04:00:45.811Z,33.40
2019-02-04T04:03:15.091Z,20.17
2019-02-04T04:05:44.470Z,21.43
2019-02-04T04:08:13.906Z,20.00
2019-02-04T04:10:44.214Z,18.13
2019-02-04T04:13:15.499Z,18.20
2019-02-04T04:15:45.315Z,18.93
2019-02-04T04:18:16.280Z,21.03
2019-02-04T04:20:45.565Z,17.97
2019-02-04T04:23:14.647Z,18.77
2019-02-04T04:25:44.055Z,20.60
2019-02-04T04:28:13.719Z,16.53
2019-02-04T04:30:43.192Z,16.60
2019-02-04T04:33:12.516Z,20.23
2019-02-04T04:35:41.917Z,19.07
2019-02-04T04:38:12.107Z,15.50
2019-02-04T04:40:43.903Z,17.13
2019-02-04T04:43:15.492Z,14.97
2019-02-04T04:45:44.750Z,15.40
2019-02-04T04:48:26.041Z,16.73
2019-02-04T04:50:48.195Z,15.10
2019-02-04T04:53:17.413Z,13.83
2019-02-04T04:55:46.903Z,13.10
2019-02-04T04:58:16.033Z,22.63
2019-02-04T05:00:45.086Z,19.40
2019-02-04T05:03:14.193Z,12.77
2019-02-04T05:05:43.484Z,19.47
2019-02-04T05:08:12.585Z,19.57
2019-02-04T05:10:42.187Z,15.80
2019-02-04T05:13:11.287Z,18.07
2019-02-04T05:15:40.330Z,13.00
2019-02-04T05:18:09.397Z,15.73
2019-02-04T05:20:38.707Z,18.10
2019-02-04T05:23:08.127Z,16.23
2019-02-04T05:25:37.553Z,18.30
2019-02-04T05:28:06.672Z,11.30
2019-02-04T05:30:35.821Z,14.43
2019-02-04T05:33:04.955Z,13.53
2019-02-04T05:35:34.117Z,14.07
2019-02-04T05:38:03.679Z,14.90
2019-02-04T05:40:32.951Z,15.93
2019-02-04T05:43:02.078Z,17.50
2019-02-04T05:45:34.116Z,15.33
2019-02-04T05:48:03.345Z,15.37
2019-02-04T05:50:33.182Z,16.00
2019-02-04T05:53:02.776Z,13.50
2019-02-04T05:55:31.925Z,16.50
2019-02-04T05:58:01.887Z,14.23
2019-02-04T06:00:38.586Z,16.53
2019-02-04T06:03:08.238Z,16.23
2019-02-04T06:05:39.899Z,17.23
2019-02-04T06:08:09.024Z,15.47
2019-02-04T06:10:38.186Z,18.30
2019-02-04T06:13:07.425Z,15.67
2019-02-04T06:15:38.457Z,18.67
2019-02-04T06:18:08.969Z,18.07
2019-02-04T06:20:38.910Z,19.30
2019-02-04T06:23:08.052Z,20.97
2019-02-04T06:25:37.469Z,21.57
2019-02-04T06:28:07.482Z,24.60
2019-02-04T06:30:36.570Z,16.33
2019-02-04T06:33:06.141Z,16.47
2019-02-04T06:35:35.405Z,16.63
2019-02-04T06:38:07.774Z,19.23
2019-02-04T06:40:36.874Z,21.07
2019-02-04T06:43:06.434Z,17.87
2019-02-04T06:45:35.605Z,19.47
2019-02-04T06:48:06.180Z,15.90
2019-02-04T06:50:35.242Z,18.63
2019-02-04T06:53:05.096Z,22.60
2019-02-04T06:55:34.341Z,15.37
2019-02-04T06:58:04.326Z,17.17
2019-02-04T07:00:33.443Z,13.30
2019-02-04T07:03:04.356Z,17.57
2019-02-04T07:05:43.540Z,15.53
2019-02-04T07:08:04.628Z,14.90
2019-02-04T07:10:34.136Z,17.27
2019-02-04T07:13:03.833Z,12.53
2019-02-04T07:15:33.877Z,9.73
2019-02-04T07:18:03.027Z,10.87
2019-02-04T07:20:32.142Z,22.23
2019-02-04T07:23:01.227Z,10.10
2019-02-04T07:25:30.323Z,10.57
2019-02-04T07:27:59.391Z,11.87
2019-02-04T07:30:28.628Z,12.17
2019-02-04T07:32:57.698Z,12.73
2019-02-04T07:35:29.695Z,13.03
2019-02-04T07:37:59.647Z,10.43
2019-02-04T07:40:30.575Z,9.20
2019-02-04T07:42:59.838Z,9.30
2019-02-04T07:45:29.482Z,8.13
2019-02-04T07:47:58.572Z,10.37
2019-02-04T07:50:27.754Z,16.00
2019-02-04T07:52:56.903Z,13.20
2019-02-04T07:55:27.087Z,14.40
2019-02-04T07:57:57.358Z,6.37
2019-02-04T08:00:30.308Z,12.43
2019-02-04T08:02:59.351Z,15.60
2019-02-04T08:05:29.476Z,12.07
2019-02-04T08:08:00.948Z,12.83
2019-02-04T08:10:30.063Z,15.67
2019-02-04T08:13:02.104Z,9.77
2019-02-04T08:15:34.163Z,12.73
2019-02-04T08:18:03.324Z,9.57
2019-02-04T08:20:32.422Z,8.13
2019-02-04T08:23:02.616Z,13.60
2019-02-04T08:25:31.730Z,10.10
2019-02-04T08:28:01.391Z,11.73
2019-02-04T08:30:37.888Z,11.23
2019-02-04T08:33:06.127Z,15.87
2019-02-04T08:35:35.375Z,12.20
2019-02-04T08:38:05.048Z,12.10
2019-02-04T08:40:35.357Z,11.20
2019-02-04T08:43:05.188Z,14.23
2019-02-04T08:45:35.328Z,12.43
2019-02-04T08:48:17.896Z,13.67
2019-02-04T08:50:47.200Z,6.70
2019-02-04T08:53:16.516Z,8.97
2019-02-04T08:55:52.048Z,6.67
2019-02-04T08:58:24.289Z,13.27
2019-02-04T09:00:55.196Z,8.77
